sensor_id;sensor_type;location;lat;lon;timestamp;pressure;altitude;pressure_sealevel;temperature;humidity
23574;BME280;11965;53.640;10.050;2023-12-04T00:01:16;101769.75;;;-2.99;100.00
23574;BME280;11965;53.640;10.050;2023-12-04T00:03:43;101763.66;;;-3.03;100.00
23574;BME280;11965;53.640;10.050;2023-12-04T00:06:11;101768.03;;;-3.00;100.00
23574;BME280;11965;53.640;10.050;2023-12-04T00:08:38;101758.47;;;-3.07;100.00
23574;BME280;11965;53.640;10.050;2023-12-04T00:11:05;101760.19;;;-3.06;100.00
23574;BME280;11965;53.640;10.050;2023-12-04T00:13:32;101756.91;;;-3.12;100.00
23574;BME280;11965;53.640;10.050;2023-12-04T00:16:02;101758.63;;;-3.11;100.00
23574;BME280;11965;53.640;10.050;2023-12-04T00:18:29;101768.03;;;-3.00;100.00
23574;BME280;11965;53.640;10.050;2023-12-04T00:20:56;101755.69;;;-3.06;100.00
23574;BME280;11965;53.640;10.050;2023-12-04T00:23:22;101750.25;;;-3.06;100.00
23574;BME280;11965;53.640;10.050;2023-12-04T00:25:49;101749.28;;;-3.05;100.00
23574;BME280;11965;53.640;10.050;2023-12-04T00:28:16;101744.28;;;-3.13;100.00
23574;BME280;11965;53.640;10.050;2023-12-04T00:30:44;101739.03;;;-3.16;100.00
23574;BME280;11965;53.640;10.050;2023-12-04T00:33:12;101744.00;;;-3.24;100.00
23574;BME280;11965;53.640;10.050;2023-12-04T00:35:39;101748.44;;;-3.23;100.00
23574;BME280;11965;53.640;10.050;2023-12-04T00:38:06;101752.75;;;-3.19;100.00
23574;BME280;11965;53.640;10.050;2023-12-04T00:40:33;101754.91;;;-3.25;100.00
23574;BME280;11965;53.640;10.050;2023-12-04T00:43:00;101743.19;;;-3.26;100.00
23574;BME280;11965;53.640;10.050;2023-12-04T00:45:27;101748.84;;;-3.30;100.00
23574;BME280;11965;53.640;10.050;2023-12-04T00:47:54;101749.59;;;-3.27;100.00
23574;BME280;11965;53.640;10.050;2023-12-04T00:50:22;101747.56;;;-3.23;100.00
23574;BME280;11965;53.640;10.050;2023-12-04T00:52:49;101741.97;;;-3.20;100.00
23574;BME280;11965;53.640;10.050;2023-12-04T00:55:16;101745.72;;;-3.23;100.00
23574;BME280;11965;53.640;10.050;2023-12-04T00:57:43;101743.94;;;-3.22;100.00
23574;BME280;11965;53.640;10.050;2023-12-04T01:00:11;101738.75;;;-3.27;100.00
23574;BME280;11965;53.640;10.050;2023-12-04T01:02:38;101736.97;;;-3.28;100.00
23574;BME280;11965;53.640;10.050;2023-12-04T01:05:05;101730.06;;;-3.34;100.00
23574;BME280;11965;53.640;10.050;2023-12-04T01:07:34;101730.16;;;-3.35;100.00
23574;BME280;11965;53.640;10.050;2023-12-04T01:10:01;101728.69;;;-3.25;100.00
23574;BME280;11965;53.640;10.050;2023-12-04T01:12:28;101734.78;;;-3.37;100.00
23574;BME280;11965;53.640;10.050;2023-12-04T01:14:54;101725.44;;;-3.31;100.00
23574;BME280;11965;53.640;10.050;2023-12-04T01:17:21;101711.63;;;-3.27;100.00
23574;BME280;11965;53.640;10.050;2023-12-04T01:19:49;101714.34;;;-3.27;100.00
23574;BME280;11965;53.640;10.050;2023-12-04T01:22:16;101714.53;;;-3.30;100.00
23574;BME280;11965;53.640;10.050;2023-12-04T01:24:44;101711.59;;;-3.43;100.00
23574;BME280;11965;53.640;10.050;2023-12-04T01:27:11;101705.47;;;-3.46;100.00
23574;BME280;11965;53.640;10.050;2023-12-04T01:29:38;101706.00;;;-3.40;100.00
23574;BME280;11965;53.640;10.050;2023-12-04T01:32:05;101692.34;;;-3.54;100.00
23574;BME280;11965;53.640;10.050;2023-12-04T01:34:32;101722.59;;;-3.46;100.00
23574;BME280;11965;53.640;10.050;2023-12-04T01:36:59;101712.81;;;-3.48;100.00
23574;BME280;11965;53.640;10.050;2023-12-04T01:39:26;101713.16;;;-3.54;100.00
23574;BME280;11965;53.640;10.050;2023-12-04T01:41:55;101711.03;;;-3.49;100.00
23574;BME280;11965;53.640;10.050;2023-12-04T01:44:21;101712.25;;;-3.55;100.00
23574;BME280;11965;53.640;10.050;2023-12-04T01:46:49;101704.28;;;-3.58;100.00
23574;BME280;11965;53.640;10.050;2023-12-04T01:49:16;101705.25;;;-3.59;100.00
23574;BME280;11965;53.640;10.050;2023-12-04T01:51:46;101706.47;;;-3.65;100.00
23574;BME280;11965;53.640;10.050;2023-12-04T01:54:13;101698.56;;;-3.69;100.00
23574;BME280;11965;53.640;10.050;2023-12-04T01:56:41;101700.00;;;-3.62;100.00
23574;BME280;11965;53.640;10.050;2023-12-04T01:59:09;101692.81;;;-3.63;100.00
23574;BME280;11965;53.640;10.050;2023-12-04T02:01:37;101689.25;;;-3.64;100.00
23574;BME280;11965;53.640;10.050;2023-12-04T02:04:04;101687.66;;;-3.68;100.00
23574;BME280;11965;53.640;10.050;2023-12-04T02:06:31;101688.38;;;-3.64;100.00
23574;BME280;11965;53.640;10.050;2023-12-04T02:08:58;101683.19;;;-3.69;100.00
23574;BME280;11965;53.640;10.050;2023-12-04T02:11:25;101681.94;;;-3.79;100.00
23574;BME280;11965;53.640;10.050;2023-12-04T02:13:52;101686.56;;;-3.81;100.00
23574;BME280;11965;53.640;10.050;2023-12-04T02:16:23;101678.34;;;-3.80;100.00
23574;BME280;11965;53.640;10.050;2023-12-04T02:18:53;101678.28;;;-3.78;100.00
23574;BME280;11965;53.640;10.050;2023-12-04T02:21:20;101688.47;;;-3.83;100.00
23574;BME280;11965;53.640;10.050;2023-12-04T02:23:50;101673.16;;;-3.84;100.00
23574;BME280;11965;53.640;10.050;2023-12-04T02:26:24;101678.44;;;-3.81;100.00
23574;BME280;11965;53.640;10.050;2023-12-04T02:28:58;101669.34;;;-3.80;100.00
23574;BME280;11965;53.640;10.050;2023-12-04T02:31:30;101659.03;;;-3.73;100.00
23574;BME280;11965;53.640;10.050;2023-12-04T02:34:00;101650.38;;;-3.80;100.00
23574;BME280;11965;53.640;10.050;2023-12-04T02:36:30;101643.25;;;-3.81;100.00
23574;BME280;11965;53.640;10.050;2023-12-04T02:38:59;101647.75;;;-3.82;100.00
23574;BME280;11965;53.640;10.050;2023-12-04T02:41:26;101649.53;;;-3.81;100.00
23574;BME280;11965;53.640;10.050;2023-12-04T02:43:53;101644.28;;;-3.84;100.00
23574;BME280;11965;53.640;10.050;2023-12-04T02:46:21;101643.13;;;-3.80;100.00
23574;BME280;11965;53.640;10.050;2023-12-04T02:48:48;101643.13;;;-3.80;100.00
23574;BME280;11965;53.640;10.050;2023-12-04T02:51:14;101638.84;;;-3.84;100.00
23574;BME280;11965;53.640;10.050;2023-12-04T02:53:41;101629.69;;;-3.81;100.00
23574;BME280;11965;53.640;10.050;2023-12-04T02:56:11;101625.66;;;-3.74;100.00
23574;BME280;11965;53.640;10.050;2023-12-04T02:58:38;101621.28;;;-3.77;100.00
23574;BME280;11965;53.640;10.050;2023-12-04T03:01:05;101625.03;;;-3.79;100.00
23574;BME280;11965;53.640;10.050;2023-12-04T03:03:32;101620.59;;;-3.80;100.00
23574;BME280;11965;53.640;10.050;2023-12-04T03:05:59;101615.19;;;-3.80;100.00
23574;BME280;11965;53.640;10.050;2023-12-04T03:08:26;101610.16;;;-3.70;100.00
23574;BME280;11965;53.640;10.050;2023-12-04T03:10:53;101599.94;;;-3.65;100.00
23574;BME280;11965;53.640;10.050;2023-12-04T03:13:21;101597.28;;;-3.67;100.00
23574;BME280;11965;53.640;10.050;2023-12-04T03:15:48;101593.53;;;-3.64;100.00
23574;BME280;11965;53.640;10.050;2023-12-04T03:18:15;101587.44;;;-3.68;100.00
23574;BME280;11965;53.640;10.050;2023-12-04T03:20:42;101597.81;;;-3.60;100.00
23574;BME280;11965;53.640;10.050;2023-12-04T03:23:09;101587.88;;;-3.60;100.00
23574;BME280;11965;53.640;10.050;2023-12-04T03:25:36;101586.84;;;-3.57;100.00
23574;BME280;11965;53.640;10.050;2023-12-04T03:28:03;101583.59;;;-3.48;100.00
23574;BME280;11965;53.640;10.050;2023-12-04T03:30:31;101586.22;;;-3.46;100.00
23574;BME280;11965;53.640;10.050;2023-12-04T03:32:58;101582.56;;;-3.45;100.00
23574;BME280;11965;53.640;10.050;2023-12-04T03:35:26;101573.72;;;-3.49;100.00
23574;BME280;11965;53.640;10.050;2023-12-04T03:37:53;101576.25;;;-3.46;100.00
23574;BME280;11965;53.640;10.050;2023-12-04T03:40:20;101567.41;;;-3.49;100.00
23574;BME280;11965;53.640;10.050;2023-12-04T03:42:47;101559.19;;;-3.48;100.00
23574;BME280;11965;53.640;10.050;2023-12-04T03:45:14;101552.13;;;-3.50;100.00
23574;BME280;11965;53.640;10.050;2023-12-04T03:47:42;101553.72;;;-3.46;100.00
23574;BME280;11965;53.640;10.050;2023-12-04T03:50:09;101543.75;;;-3.46;100.00
23574;BME280;11965;53.640;10.050;2023-12-04T03:52:36;101548.44;;;-3.49;100.00
23574;BME280;11965;53.640;10.050;2023-12-04T03:55:04;101535.06;;;-3.52;100.00
23574;BME280;11965;53.640;10.050;2023-12-04T03:57:31;101534.38;;;-3.56;100.00
23574;BME280;11965;53.640;10.050;2023-12-04T03:59:58;101536.22;;;-3.57;100.00
23574;BME280;11965;53.640;10.050;2023-12-04T04:02:25;101526.50;;;-3.61;100.00
23574;BME280;11965;53.640;10.050;2023-12-04T04:04:53;101520.91;;;-3.58;100.00
23574;BME280;11965;53.640;10.050;2023-12-04T04:07:20;101515.78;;;-3.62;100.00
23574;BME280;11965;53.640;10.050;2023-12-04T04:09:46;101514.09;;;-3.65;100.00
23574;BME280;11965;53.640;10.050;2023-12-04T04:12:13;101512.63;;;-3.70;100.00
23574;BME280;11965;53.640;10.050;2023-12-04T04:14:40;101507.19;;;-3.70;100.00
23574;BME280;11965;53.640;10.050;2023-12-04T04:17:06;101507.34;;;-3.73;100.00
23574;BME280;11965;53.640;10.050;2023-12-04T04:19:33;101506.84;;;-3.80;100.00
23574;BME280;11965;53.640;10.050;2023-12-04T04:22:02;101499.69;;;-3.81;100.00
23574;BME280;11965;53.640;10.050;2023-12-04T04:24:29;101494.94;;;-3.78;100.00
23574;BME280;11965;53.640;10.050;2023-12-04T04:26:56;101483.75;;;-3.71;100.00
23574;BME280;11965;53.640;10.050;2023-12-04T04:29:23;101487.00;;;-3.65;100.00
23574;BME280;11965;53.640;10.050;2023-12-04T04:31:50;101491.72;;;-3.68;100.00
23574;BME280;11965;53.640;10.050;2023-12-04T04:34:16;101492.44;;;-3.65;100.00
23574;BME280;11965;53.640;10.050;2023-12-04T04:36:43;101495.22;;;-3.50;100.00
23574;BME280;11965;53.640;10.050;2023-12-04T04:39:13;101489.72;;;-3.33;100.00
23574;BME280;11965;53.640;10.050;2023-12-04T04:41:40;101493.53;;;-3.21;100.00
23574;BME280;11965;53.640;10.050;2023-12-04T04:44:07;101492.28;;;-3.16;100.00
23574;BME280;11965;53.640;10.050;2023-12-04T04:46:34;101493.94;;;-3.13;100.00
23574;BME280;11965;53.640;10.050;2023-12-04T04:49:01;101493.06;;;-3.14;100.00
23574;BME280;11965;53.640;10.050;2023-12-04T04:51:32;101491.03;;;-3.10;100.00
23574;BME280;11965;53.640;10.050;2023-12-04T04:53:59;101488.84;;;-3.03;100.00
23574;BME280;11965;53.640;10.050;2023-12-04T04:56:28;101484.59;;;-2.93;100.00
23574;BME280;11965;53.640;10.050;2023-12-04T04:58:55;101479.09;;;-2.92;100.00
23574;BME280;11965;53.640;10.050;2023-12-04T05:01:23;101470.16;;;-2.94;100.00
23574;BME280;11965;53.640;10.050;2023-12-04T05:03:50;101472.88;;;-2.94;100.00
23574;BME280;11965;53.640;10.050;2023-12-04T05:06:17;101462.22;;;-2.97;100.00
23574;BME280;11965;53.640;10.050;2023-12-04T05:08:43;101466.78;;;-2.97;100.00
23574;BME280;11965;53.640;10.050;2023-12-04T05:11:10;101459.69;;;-3.00;100.00
23574;BME280;11965;53.640;10.050;2023-12-04T05:13:42;101461.34;;;-2.97;100.00
23574;BME280;11965;53.640;10.050;2023-12-04T05:16:09;101461.34;;;-2.97;100.00
23574;BME280;11965;53.640;10.050;2023-12-04T05:18:38;101461.25;;;-2.96;100.00
23574;BME280;11965;53.640;10.050;2023-12-04T05:21:08;101454.09;;;-2.97;100.00
23574;BME280;11965;53.640;10.050;2023-12-04T05:23:35;101455.75;;;-2.94;100.00
23574;BME280;11965;53.640;10.050;2023-12-04T05:26:02;101450.25;;;-2.93;100.00
23574;BME280;11965;53.640;10.050;2023-12-04T05:28:30;101447.22;;;-2.88;100.00
23574;BME280;11965;53.640;10.050;2023-12-04T05:30:58;101432.00;;;-2.91;100.00
23574;BME280;11965;53.640;10.050;2023-12-04T05:33:25;101438.13;;;-2.87;100.00
23574;BME280;11965;53.640;10.050;2023-12-04T05:35:53;101437.75;;;-2.81;100.00
23574;BME280;11965;53.640;10.050;2023-12-04T05:38:20;101426.81;;;-2.79;100.00
23574;BME280;11965;53.640;10.050;2023-12-04T05:40:46;101444.56;;;-2.74;100.00
23574;BME280;11965;53.640;10.050;2023-12-04T05:43:14;101430.50;;;-2.66;100.00
23574;BME280;11965;53.640;10.050;2023-12-04T05:45:41;101433.78;;;-2.61;100.00
23574;BME280;11965;53.640;10.050;2023-12-04T05:48:09;101440.50;;;-2.52;100.00
23574;BME280;11965;53.640;10.050;2023-12-04T05:50:36;101432.84;;;-2.46;100.00
23574;BME280;11965;53.640;10.050;2023-12-04T05:53:03;101431.69;;;-2.41;100.00
23574;BME280;11965;53.640;10.050;2023-12-04T05:55:30;101426.16;;;-2.40;100.00
23574;BME280;11965;53.640;10.050;2023-12-04T05:57:57;101418.78;;;-2.38;100.00
23574;BME280;11965;53.640;10.050;2023-12-04T06:00:24;101423.03;;;-2.34;100.00
23574;BME280;11965;53.640;10.050;2023-12-04T06:02:51;101419.19;;;-2.30;100.00
23574;BME280;11965;53.640;10.050;2023-12-04T06:05:19;101414.63;;;-2.29;100.00
23574;BME280;11965;53.640;10.050;2023-12-04T06:07:46;101418.19;;;-2.29;100.00
23574;BME280;11965;53.640;10.050;2023-12-04T06:10:13;101402.59;;;-2.25;100.00
23574;BME280;11965;53.640;10.050;2023-12-04T06:12:40;101404.34;;;-2.24;100.00
23574;BME280;11965;53.640;10.050;2023-12-04T06:15:08;101402.47;;;-2.24;100.00
23574;BME280;11965;53.640;10.050;2023-12-04T06:17:35;101405.00;;;-2.20;100.00
23574;BME280;11965;53.640;10.050;2023-12-04T06:20:02;101404.00;;;-2.05;100.00
23574;BME280;11965;53.640;10.050;2023-12-04T06:22:31;101399.56;;;-2.20;100.00
23574;BME280;11965;53.640;10.050;2023-12-04T06:24:59;101398.25;;;-2.28;100.00
23574;BME280;11965;53.640;10.050;2023-12-04T06:27:26;101400.16;;;-2.30;100.00
23574;BME280;11965;53.640;10.050;2023-12-04T06:29:54;101388.72;;;-2.35;100.00
23574;BME280;11965;53.640;10.050;2023-12-04T06:32:21;101391.16;;;-2.45;100.00
23574;BME280;11965;53.640;10.050;2023-12-04T06:34:48;101398.75;;;-2.50;100.00
23574;BME280;11965;53.640;10.050;2023-12-04T06:37:16;101388.94;;;-2.52;100.00
23574;BME280;11965;53.640;10.050;2023-12-04T06:39:48;101392.59;;;-2.53;100.00
23574;BME280;11965;53.640;10.050;2023-12-04T06:42:17;101396.31;;;-2.54;100.00
23574;BME280;11965;53.640;10.050;2023-12-04T06:44:44;101391.81;;;-2.55;100.00
23574;BME280;11965;53.640;10.050;2023-12-04T06:47:12;101393.69;;;-2.56;100.00
23574;BME280;11965;53.640;10.050;2023-12-04T06:49:39;101387.38;;;-2.56;100.00
23574;BME280;11965;53.640;10.050;2023-12-04T06:52:06;101387.38;;;-2.56;100.00
23574;BME280;11965;53.640;10.050;2023-12-04T06:54:33;101385.66;;;-2.57;100.00
23574;BME280;11965;53.640;10.050;2023-12-04T06:57:01;101392.94;;;-2.58;100.00
23574;BME280;11965;53.640;10.050;2023-12-04T06:59:28;101386.59;;;-2.58;100.00
23574;BME280;11965;53.640;10.050;2023-12-04T07:01:56;101388.25;;;-2.56;100.00
23574;BME280;11965;53.640;10.050;2023-12-04T07:04:23;101391.16;;;-2.59;100.00
23574;BME280;11965;53.640;10.050;2023-12-04T07:06:50;101385.94;;;-2.62;100.00
23574;BME280;11965;53.640;10.050;2023-12-04T07:09:17;101387.78;;;-2.62;100.00
23574;BME280;11965;53.640;10.050;2023-12-04T07:11:44;101384.09;;;-2.61;100.00
23574;BME280;11965;53.640;10.050;2023-12-04T07:14:13;101385.66;;;-2.57;100.00
23574;BME280;11965;53.640;10.050;2023-12-04T07:16:40;101387.38;;;-2.56;100.00
23574;BME280;11965;53.640;10.050;2023-12-04T07:19:08;101380.88;;;-2.54;100.00
23574;BME280;11965;53.640;10.050;2023-12-04T07:21:36;101378.25;;;-2.55;100.00
23574;BME280;11965;53.640;10.050;2023-12-04T07:24:03;101383.69;;;-2.55;100.00
23574;BME280;11965;53.640;10.050;2023-12-04T07:26:31;101377.19;;;-2.53;100.00
23574;BME280;11965;53.640;10.050;2023-12-04T07:28:58;101381.38;;;-2.47;100.00
23574;BME280;11965;53.640;10.050;2023-12-04T07:31:27;101374.97;;;-2.46;100.00
23574;BME280;11965;53.640;10.050;2023-12-04T07:33:54;101371.06;;;-2.42;100.00
23574;BME280;11965;53.640;10.050;2023-12-04T07:36:21;101369.44;;;-2.45;100.00
23574;BME280;11965;53.640;10.050;2023-12-04T07:38:49;101368.56;;;-2.45;100.00
23574;BME280;11965;53.640;10.050;2023-12-04T07:41:17;101367.41;;;-2.41;100.00
23574;BME280;11965;53.640;10.050;2023-12-04T07:43:44;101371.19;;;-2.43;100.00
23574;BME280;11965;53.640;10.050;2023-12-04T07:46:11;101371.00;;;-2.40;100.00
23574;BME280;11965;53.640;10.050;2023-12-04T07:48:40;101372.63;;;-2.38;100.00
23574;BME280;11965;53.640;10.050;2023-12-04T07:51:09;101366.44;;;-2.40;100.00
23574;BME280;11965;53.640;10.050;2023-12-04T07:53:36;101364.78;;;-2.42;100.00
23574;BME280;11965;53.640;10.050;2023-12-04T07:56:03;101360.72;;;-2.35;100.00
23574;BME280;11965;53.640;10.050;2023-12-04T07:58:31;101365.56;;;-2.40;100.00
23574;BME280;11965;53.640;10.050;2023-12-04T08:00:59;101363.50;;;-2.37;100.00
23574;BME280;11965;53.640;10.050;2023-12-04T08:03:26;101359.94;;;-2.37;100.00
23574;BME280;11965;53.640;10.050;2023-12-04T08:05:55;101358.88;;;-2.35;100.00
23574;BME280;11965;53.640;10.050;2023-12-04T08:08:24;101360.09;;;-2.26;100.00
23574;BME280;11965;53.640;10.050;2023-12-04T08:10:51;101355.47;;;-2.24;100.00
23574;BME280;11965;53.640;10.050;2023-12-04T08:13:18;101344.88;;;-2.29;100.00
23574;BME280;11965;53.640;10.050;2023-12-04T08:15:46;101347.31;;;-2.24;100.00
23574;BME280;11965;53.640;10.050;2023-12-04T08:18:12;101348.34;;;-2.12;100.00
23574;BME280;11965;53.640;10.050;2023-12-04T08:20:40;101336.53;;;-2.11;100.00
23574;BME280;11965;53.640;10.050;2023-12-04T08:23:08;101338.03;;;-2.07;100.00
23574;BME280;11965;53.640;10.050;2023-12-04T08:25:35;101339.69;;;-2.05;100.00
23574;BME280;11965;53.640;10.050;2023-12-04T08:28:04;101332.03;;;-1.98;100.00
23574;BME280;11965;53.640;10.050;2023-12-04T08:30:31;101333.97;;;-2.00;100.00
23574;BME280;11965;53.640;10.050;2023-12-04T08:32:58;101332.47;;;-1.91;100.00
23574;BME280;11965;53.640;10.050;2023-12-04T08:35:25;101332.59;;;-1.93;100.00
23574;BME280;11965;53.640;10.050;2023-12-04T08:37:52;101334.97;;;-1.88;100.00
23574;BME280;11965;53.640;10.050;2023-12-04T08:40:20;101340.63;;;-1.91;100.00
23574;BME280;11965;53.640;10.050;2023-12-04T08:42:47;101329.75;;;-1.91;100.00
23574;BME280;11965;53.640;10.050;2023-12-04T08:45:15;101331.53;;;-1.90;100.00
23574;BME280;11965;53.640;10.050;2023-12-04T08:47:42;101341.09;;;-1.85;100.00
23574;BME280;11965;53.640;10.050;2023-12-04T08:50:09;101334.03;;;-1.87;100.00
23574;BME280;11965;53.640;10.050;2023-12-04T08:52:36;101344.03;;;-1.88;100.00
23574;BME280;11965;53.640;10.050;2023-12-04T08:55:05;101341.59;;;-1.92;100.00
23574;BME280;11965;53.640;10.050;2023-12-04T08:57:34;101341.09;;;-1.85;100.00
23574;BME280;11965;53.640;10.050;2023-12-04T09:00:01;101340.03;;;-1.82;100.00
23574;BME280;11965;53.640;10.050;2023-12-04T09:02:29;101337.75;;;-1.75;100.00
23574;BME280;11965;53.640;10.050;2023-12-04T09:04:56;101332.22;;;-1.74;100.00
23574;BME280;11965;53.640;10.050;2023-12-04T09:07:23;101340.47;;;-1.75;100.00
23574;BME280;11965;53.640;10.050;2023-12-04T09:09:50;101335.38;;;-1.67;100.00
23574;BME280;11965;53.640;10.050;2023-12-04T09:12:17;101334.44;;;-1.66;100.00
23574;BME280;11965;53.640;10.050;2023-12-04T09:14:45;101329.44;;;-1.60;100.00
23574;BME280;11965;53.640;10.050;2023-12-04T09:17:13;101333.34;;;-1.64;100.00
23574;BME280;11965;53.640;10.050;2023-12-04T09:19:40;101339.53;;;-1.62;100.00
23574;BME280;11965;53.640;10.050;2023-12-04T09:22:07;101344.53;;;-1.68;100.00
23574;BME280;11965;53.640;10.050;2023-12-04T09:24:34;101339.19;;;-1.70;100.00
23574;BME280;11965;53.640;10.050;2023-12-04T09:27:01;101337.81;;;-1.63;100.00
23574;BME280;11965;53.640;10.050;2023-12-04T09:29:28;101332.16;;;-1.60;100.00
23574;BME280;11965;53.640;10.050;2023-12-04T09:31:56;101320.53;;;-1.49;100.00
23574;BME280;11965;53.640;10.050;2023-12-04T09:34:23;101323.59;;;-1.41;100.00
23574;BME280;11965;53.640;10.050;2023-12-04T09:36:50;101323.50;;;-1.39;100.00
23574;BME280;11965;53.640;10.050;2023-12-04T09:39:16;101319.94;;;-1.40;100.00
23574;BME280;11965;53.640;10.050;2023-12-04T09:41:44;101321.44;;;-1.36;100.00
23574;BME280;11965;53.640;10.050;2023-12-04T09:44:12;101324.28;;;-1.24;100.00
23574;BME280;11965;53.640;10.050;2023-12-04T09:46:39;101326.22;;;-1.26;100.00
23574;BME280;11965;53.640;10.050;2023-12-04T09:49:08;101325.81;;;-1.20;100.00
23574;BME280;11965;53.640;10.050;2023-12-04T09:51:37;101316.34;;;-1.15;100.00
23574;BME280;11965;53.640;10.050;2023-12-04T09:54:05;101316.69;;;-1.06;100.00
23574;BME280;11965;53.640;10.050;2023-12-04T09:56:35;101318.44;;;-1.18;100.00
23574;BME280;11965;53.640;10.050;2023-12-04T09:59:05;101313.72;;;-1.16;100.00
23574;BME280;11965;53.640;10.050;2023-12-04T10:01:35;101307.66;;;-1.07;100.00
23574;BME280;11965;53.640;10.050;2023-12-04T10:04:03;101309.09;;;-0.88;100.00
23574;BME280;11965;53.640;10.050;2023-12-04T10:06:33;101302.19;;;-0.81;100.00
23574;BME280;11965;53.640;10.050;2023-12-04T10:09:04;101297.31;;;-0.76;100.00
23574;BME280;11965;53.640;10.050;2023-12-04T10:11:40;101283.47;;;-0.73;100.00
23574;BME280;11965;53.640;10.050;2023-12-04T10:14:16;101279.56;;;-0.69;100.00
23574;BME280;11965;53.640;10.050;2023-12-04T10:16:44;101280.94;;;-0.63;100.00
23574;BME280;11965;53.640;10.050;2023-12-04T10:19:16;101271.22;;;-0.55;100.00
23574;BME280;11965;53.640;10.050;2023-12-04T10:21:46;101277.53;;;-0.54;100.00
23574;BME280;11965;53.640;10.050;2023-12-04T10:24:27;101267.84;;;-0.46;100.00
23574;BME280;11965;53.640;10.050;2023-12-04T10:26:54;101264.75;;;-0.41;100.00
23574;BME280;11965;53.640;10.050;2023-12-04T10:29:22;101266.97;;;-0.46;100.00
23574;BME280;11965;53.640;10.050;2023-12-04T10:31:50;101258.09;;;-0.61;100.00
23574;BME280;11965;53.640;10.050;2023-12-04T10:34:18;101257.00;;;-0.71;100.00
23574;BME280;11965;53.640;10.050;2023-12-04T10:36:47;101247.81;;;-0.57;100.00
23574;BME280;11965;53.640;10.050;2023-12-04T10:39:14;101254.44;;;-0.49;100.00
23574;BME280;11965;53.640;10.050;2023-12-04T10:41:43;101251.63;;;-0.47;100.00
23574;BME280;11965;53.640;10.050;2023-12-04T10:44:15;101253.72;;;-0.51;100.00
23574;BME280;11965;53.640;10.050;2023-12-04T10:46:45;101251.94;;;-0.52;100.00
23574;BME280;11965;53.640;10.050;2023-12-04T10:49:14;101250.22;;;-0.53;100.00
23574;BME280;11965;53.640;10.050;2023-12-04T10:51:41;101250.97;;;-0.51;100.00
23574;BME280;11965;53.640;10.050;2023-12-04T10:54:12;101241.13;;;-0.40;100.00
23574;BME280;11965;53.640;10.050;2023-12-04T10:56:42;101242.13;;;-0.41;100.00
23574;BME280;11965;53.640;10.050;2023-12-04T10:59:11;101245.94;;;-0.44;100.00
23574;BME280;11965;53.640;10.050;2023-12-04T11:01:44;101241.88;;;-0.38;100.00
23574;BME280;11965;53.640;10.050;2023-12-04T11:04:17;101241.44;;;-0.32;100.00
23574;BME280;11965;53.640;10.050;2023-12-04T11:06:51;101239.72;;;-0.46;100.00
23574;BME280;11965;53.640;10.050;2023-12-04T11:09:21;101228.19;;;-0.50;100.00
23574;BME280;11965;53.640;10.050;2023-12-04T11:11:57;101235.63;;;-0.28;100.00
23574;BME280;11965;53.640;10.050;2023-12-04T11:14:34;101231.75;;;-0.36;100.00
23574;BME280;11965;53.640;10.050;2023-12-04T11:17:08;101227.50;;;-0.40;100.00
23574;BME280;11965;53.640;10.050;2023-12-04T11:19:47;101224.78;;;-0.40;100.00
23574;BME280;11965;53.640;10.050;2023-12-04T11:22:17;101227.97;;;-0.47;100.00
23574;BME280;11965;53.640;10.050;2023-12-04T11:24:47;101221.91;;;-0.50;100.00
23574;BME280;11965;53.640;10.050;2023-12-04T11:27:16;101216.31;;;-0.49;100.00
23574;BME280;11965;53.640;10.050;2023-12-04T11:29:44;101219.47;;;-0.42;100.00
23574;BME280;11965;53.640;10.050;2023-12-04T11:32:14;101213.56;;;-0.36;100.00
23574;BME280;11965;53.640;10.050;2023-12-04T11:34:54;101208.91;;;-0.47;100.00
23574;BME280;11965;53.640;10.050;2023-12-04T11:37:22;101208.69;;;-0.43;100.00
23574;BME280;11965;53.640;10.050;2023-12-04T11:39:51;101205.91;;;-0.31;100.00
23574;BME280;11965;53.640;10.050;2023-12-04T11:42:21;101203.38;;;-0.45;100.00
23574;BME280;11965;53.640;10.050;2023-12-04T11:44:49;101206.09;;;-0.45;100.00
23574;BME280;11965;53.640;10.050;2023-12-04T11:47:16;101202.94;;;-0.52;100.00
23574;BME280;11965;53.640;10.050;2023-12-04T11:49:44;101198.16;;;-0.48;100.00
23574;BME280;11965;53.640;10.050;2023-12-04T11:52:11;101198.03;;;-0.47;100.00
23574;BME280;11965;53.640;10.050;2023-12-04T11:55:05;101187.16;;;-0.59;100.00
23574;BME280;11965;53.640;10.050;2023-12-04T11:57:33;101192.19;;;-0.53;100.00
23574;BME280;11965;53.640;10.050;2023-12-04T12:00:12;101182.00;;;-0.51;100.00
23574;BME280;11965;53.640;10.050;2023-12-04T12:02:48;101177.16;;;-0.59;100.00
23574;BME280;11965;53.640;10.050;2023-12-04T12:05:15;101179.13;;;-0.61;100.00
23574;BME280;11965;53.640;10.050;2023-12-04T12:07:43;101169.22;;;-0.62;100.00
23574;BME280;11965;53.640;10.050;2023-12-04T12:10:13;101166.28;;;-0.59;100.00
23574;BME280;11965;53.640;10.050;2023-12-04T12:12:40;101163.38;;;-0.69;100.00
23574;BME280;11965;53.640;10.050;2023-12-04T12:15:08;101153.47;;;-0.70;100.00
23574;BME280;11965;53.640;10.050;2023-12-04T12:17:37;101146.69;;;-0.64;100.00
23574;BME280;11965;53.640;10.050;2023-12-04T12:20:05;101140.19;;;-0.74;100.00
23574;BME280;11965;53.640;10.050;2023-12-04T12:22:33;101138.25;;;-0.72;100.00
23574;BME280;11965;53.640;10.050;2023-12-04T12:25:00;101139.97;;;-0.71;100.00
23574;BME280;11965;53.640;10.050;2023-12-04T12:27:32;101133.31;;;-0.67;100.00
23574;BME280;11965;53.640;10.050;2023-12-04T12:29:59;101131.41;;;-0.54;100.00
23574;BME280;11965;53.640;10.050;2023-12-04T12:32:26;101127.41;;;-0.61;100.00
23574;BME280;11965;53.640;10.050;2023-12-04T12:34:53;101122.59;;;-0.57;100.00